createdAt,value
2018-06-02T05:19:30.045Z,16.30
2018-06-02T05:21:57.573Z,16.30
2018-06-02T05:24:25.083Z,16.30
2018-06-02T05:26:53.353Z,16.30
2018-06-02T05:29:21.601Z,16.30
2018-06-02T05:31:49.101Z,16.30
2018-06-02T05:34:17.331Z,16.20
2018-06-02T05:36:44.879Z,16.20
2018-06-02T05:39:12.399Z,16.30
2018-06-02T05:41:40.680Z,16.40
2018-06-02T05:44:08.916Z,16.50
2018-06-02T05:46:36.473Z,16.50
2018-06-02T05:49:03.961Z,16.60
2018-06-02T05:51:31.517Z,16.70
2018-06-02T05:54:01.500Z,17.00
2018-06-02T05:56:29.457Z,16.90
2018-06-02T05:58:56.943Z,17.20
2018-06-02T06:01:24.426Z,17.40
2018-06-02T06:03:52.691Z,17.70
2018-06-02T06:06:20.176Z,17.60
2018-06-02T06:08:48.447Z,18.80
2018-06-02T06:11:16.707Z,19.60
2018-06-02T06:13:44.205Z,19.50
2018-06-02T06:16:11.714Z,19.40
2018-06-02T06:18:39.219Z,19.10
2018-06-02T06:21:07.083Z,18.60
2018-06-02T06:23:34.573Z,18.40
2018-06-02T06:26:02.064Z,18.50
2018-06-02T06:28:29.557Z,18.60
2018-06-02T06:30:57.060Z,18.70
2018-06-02T06:33:24.585Z,18.70
2018-06-02T06:35:52.068Z,18.60
2018-06-02T06:38:19.822Z,18.50
2018-06-02T06:40:47.362Z,18.80
2018-06-02T06:43:14.840Z,18.70
2018-06-02T06:45:42.330Z,19.00
2018-06-02T06:48:10.156Z,19.40
2018-06-02T06:50:37.679Z,19.70
2018-06-02T06:53:05.208Z,19.70
2018-06-02T06:55:32.743Z,19.10
2018-06-02T06:58:00.245Z,18.80
2018-06-02T07:00:28.027Z,18.40
2018-06-02T07:02:55.509Z,18.40
2018-06-02T07:05:25.800Z,18.40
2018-06-02T07:07:53.304Z,18.30
2018-06-02T07:10:20.796Z,18.10
2018-06-02T07:12:48.272Z,18.30
2018-06-02T07:15:15.770Z,18.50
2018-06-02T07:17:44.517Z,20.10
2018-06-02T07:22:46.113Z,20.40
2018-06-02T07:25:14.398Z,20.80
2018-06-02T07:27:42.658Z,20.70
2018-06-02T07:30:10.169Z,20.70
2018-06-02T07:32:37.716Z,20.20
2018-06-02T07:35:05.226Z,20.30
2018-06-02T07:37:33.933Z,20.20
2018-06-02T07:40:02.209Z,20.40
2018-06-02T07:42:29.737Z,20.40
2018-06-02T07:44:57.235Z,20.50
2018-06-02T07:47:25.492Z,21.80
2018-06-02T07:49:53.047Z,21.70
2018-06-02T07:52:21.229Z,22.50
2018-06-02T07:54:49.583Z,22.10
2018-06-02T07:57:17.120Z,22.00
2018-06-02T07:59:44.601Z,21.90
2018-06-02T08:02:12.105Z,21.60
2018-06-02T08:04:39.648Z,21.80
2018-06-02T08:07:07.175Z,21.80
2018-06-02T08:09:34.656Z,22.40
2018-06-02T08:12:02.206Z,23.00
2018-06-02T08:14:29.709Z,22.80
2018-06-02T08:16:57.980Z,21.80
2018-06-02T08:19:26.221Z,22.30
2018-06-02T08:21:53.718Z,22.30
2018-06-02T08:24:21.979Z,23.30
2018-06-02T08:26:49.466Z,23.30
2018-06-02T08:29:16.986Z,24.70
2018-06-02T08:31:44.447Z,25.50
2018-06-02T08:34:12.217Z,25.20
2018-06-02T08:36:39.714Z,25.50
2018-06-02T08:39:07.248Z,25.60
2018-06-02T08:41:34.745Z,25.60
2018-06-02T08:44:02.242Z,25.50
2018-06-02T08:46:30.441Z,24.70
2018-06-02T08:51:32.307Z,23.50
2018-06-02T08:53:59.778Z,23.50
2018-06-02T08:56:28.101Z,23.30
2018-06-02T08:58:55.585Z,23.30
2018-06-02T09:01:23.444Z,22.50
2018-06-02T09:03:50.951Z,22.20
2018-06-02T09:06:19.208Z,23.60
2018-06-02T09:08:46.919Z,23.50
2018-06-02T09:11:14.393Z,24.10
2018-06-02T09:13:41.906Z,24.40
2018-06-02T09:16:09.377Z,24.40
2018-06-02T09:18:39.166Z,24.00
2018-06-02T09:21:06.639Z,24.00
2018-06-02T09:23:34.997Z,22.80
2018-06-02T09:26:02.495Z,22.80
2018-06-02T09:28:30.187Z,22.60
2018-06-02T09:30:57.708Z,23.70
2018-06-02T09:33:25.968Z,26.50
2018-06-02T09:35:53.462Z,26.50
2018-06-02T09:38:20.959Z,26.60
2018-06-02T09:40:48.437Z,26.10
2018-06-02T09:43:15.938Z,25.80
2018-06-02T09:45:43.663Z,25.70
2018-06-02T09:48:12.701Z,25.10
2018-06-02T09:50:40.197Z,25.10
2018-06-02T09:53:07.753Z,24.50
2018-06-02T09:55:35.232Z,23.60
2018-06-02T09:58:02.732Z,23.10
2018-06-02T10:00:31.336Z,23.30
2018-06-02T10:02:58.928Z,22.60
2018-06-02T10:05:26.430Z,22.90
2018-06-02T10:07:53.951Z,23.40
2018-06-02T10:10:22.224Z,25.00
2018-06-02T10:12:49.728Z,25.00
2018-06-02T10:15:17.272Z,24.90
2018-06-02T10:17:45.537Z,25.10
2018-06-02T10:20:13.032Z,25.10
2018-06-02T10:22:40.553Z,25.80
2018-06-02T10:25:08.048Z,26.90
2018-06-02T10:27:35.513Z,26.70
2018-06-02T10:30:03.006Z,26.20
2018-06-02T10:32:30.568Z,26.00
2018-06-02T10:34:59.973Z,24.90
2018-06-02T10:37:27.799Z,23.90
2018-06-02T10:39:55.310Z,23.70
2018-06-02T10:42:22.859Z,23.60
2018-06-02T10:44:50.346Z,23.50
2018-06-02T10:47:17.834Z,23.10
2018-06-02T10:49:46.868Z,22.80
2018-06-02T10:52:14.383Z,22.80
2018-06-02T10:54:42.637Z,23.50
2018-06-02T10:57:10.211Z,23.50
2018-06-02T10:59:38.452Z,24.00
2018-06-02T11:02:07.859Z,24.00
2018-06-02T11:04:35.339Z,23.60
2018-06-02T11:07:02.860Z,22.90
2018-06-02T11:09:30.452Z,22.80
2018-06-02T11:11:57.983Z,23.20
2018-06-02T11:14:25.489Z,23.40
2018-06-02T11:16:54.022Z,23.20
2018-06-02T11:19:21.999Z,23.20
2018-06-02T11:21:49.561Z,23.20
2018-06-02T11:24:17.030Z,23.10
2018-06-02T11:26:44.578Z,23.00
2018-06-02T11:29:12.050Z,23.10
2018-06-02T11:31:39.554Z,23.30
2018-06-02T11:34:07.020Z,23.20
2018-06-02T11:36:38.007Z,22.90
2018-06-02T11:39:05.486Z,22.80
2018-06-02T11:41:32.977Z,23.10
2018-06-02T11:44:01.270Z,22.70
2018-06-02T11:49:04.519Z,23.20
2018-06-02T11:51:32.061Z,23.20
2018-06-02T11:53:59.525Z,23.40
2018-06-02T11:56:27.030Z,23.70
2018-06-02T11:58:55.290Z,22.90
2018-06-02T12:01:22.807Z,23.00
2018-06-02T12:03:50.573Z,22.80
2018-06-02T12:06:19.066Z,22.70
2018-06-02T12:08:46.555Z,22.70
2018-06-02T12:11:14.829Z,22.50
2018-06-02T12:13:42.308Z,22.40
2018-06-02T12:16:10.582Z,22.40
2018-06-02T12:18:40.675Z,22.30
2018-06-02T12:21:08.190Z,22.30
2018-06-02T12:23:35.800Z,22.60
2018-06-02T12:26:03.375Z,22.70
2018-06-02T12:28:30.896Z,22.70
2018-06-02T12:30:58.361Z,22.90
2018-06-02T12:33:25.843Z,23.10
2018-06-02T12:35:53.328Z,23.30
2018-06-02T12:38:22.790Z,23.60
2018-06-02T12:40:50.284Z,23.80
2018-06-02T12:43:18.613Z,23.50
2018-06-02T12:45:46.129Z,23.50
2018-06-02T12:48:13.697Z,23.70
2018-06-02T12:50:41.216Z,23.90
2018-06-02T12:53:08.729Z,23.90
2018-06-02T12:55:36.210Z,23.60
2018-06-02T12:58:04.649Z,23.10
2018-06-02T13:00:32.174Z,23.40
2018-06-02T13:02:59.717Z,23.30
2018-06-02T13:05:28.050Z,22.90
2018-06-02T13:07:56.312Z,23.10
2018-06-02T13:10:24.001Z,23.10
2018-06-02T13:12:51.578Z,23.70
2018-06-02T13:15:20.641Z,24.10
2018-06-02T13:17:48.202Z,24.20
2018-06-02T13:20:17.261Z,24.70
2018-06-02T13:22:44.749Z,24.70
2018-06-02T13:25:13.438Z,24.40
2018-06-02T13:27:40.937Z,24.30
2018-06-02T13:30:08.430Z,24.20
2018-06-02T13:32:35.937Z,24.00
2018-06-02T13:35:03.463Z,23.80
2018-06-02T13:37:30.963Z,23.40
2018-06-02T13:39:58.459Z,23.40
2018-06-02T13:42:25.944Z,23.40
2018-06-02T13:44:53.456Z,23.30
2018-06-02T13:47:21.044Z,23.60
2018-06-02T13:49:48.527Z,23.60
2018-06-02T13:52:16.024Z,23.70
2018-06-02T13:54:43.584Z,23.20
2018-06-02T13:57:11.062Z,23.20
2018-06-02T13:59:38.861Z,23.10
2018-06-02T14:02:06.485Z,23.50
2018-06-02T14:04:34.018Z,23.30
2018-06-02T14:07:01.529Z,23.10
2018-06-02T14:09:29.063Z,23.50
2018-06-02T14:11:56.585Z,23.30
2018-06-02T14:14:24.876Z,22.80
2018-06-02T14:16:54.240Z,23.00
2018-06-02T14:19:21.706Z,23.00
2018-06-02T14:21:49.185Z,22.90
2018-06-02T14:24:16.728Z,23.10
2018-06-02T14:26:44.243Z,23.10
2018-06-02T14:29:11.732Z,23.20
2018-06-02T14:31:39.251Z,23.40
2018-06-02T14:34:06.728Z,23.90
2018-06-02T14:36:34.424Z,23.80
2018-06-02T14:39:02.046Z,23.40
2018-06-02T14:41:30.052Z,23.30
2018-06-02T14:43:59.142Z,23.20
2018-06-02T14:46:26.684Z,23.30
2018-06-02T14:48:57.483Z,23.10
2018-06-02T14:51:26.294Z,22.80
2018-06-02T14:53:53.806Z,22.90
2018-06-02T14:56:21.621Z,22.90
2018-06-02T14:58:49.121Z,22.50
2018-06-02T15:01:16.818Z,22.70
2018-06-02T15:03:45.134Z,22.50
2018-06-02T15:06:12.673Z,22.50
2018-06-02T15:08:40.354Z,22.50
2018-06-02T15:11:07.837Z,22.40
2018-06-02T15:13:35.417Z,22.50
2018-06-02T15:16:02.916Z,22.10
2018-06-02T15:18:30.498Z,21.90
2018-06-02T15:20:57.986Z,22.10
2018-06-02T15:23:29.001Z,21.90
2018-06-02T15:25:56.673Z,22.00
2018-06-02T15:28:25.969Z,22.00
2018-06-02T15:30:53.439Z,22.20
2018-06-02T15:33:20.922Z,22.00
2018-06-02T15:35:48.434Z,22.10
2018-06-02T15:38:22.724Z,22.10
2018-06-02T15:40:50.205Z,22.40
2018-06-02T15:43:17.718Z,22.40
2018-06-02T15:45:45.218Z,22.60
2018-06-02T15:48:12.939Z,22.60
2018-06-02T15:50:40.398Z,22.50
2018-06-02T15:53:07.891Z,22.30
2018-06-02T15:55:35.449Z,22.50
2018-06-02T15:58:03.001Z,22.60
2018-06-02T16:00:31.253Z,22.50
2018-06-02T16:02:58.714Z,22.50
2018-06-02T16:05:26.305Z,22.30
2018-06-02T16:07:53.814Z,22.30
2018-06-02T16:10:22.099Z,21.90
2018-06-02T16:12:49.780Z,21.90
2018-06-02T16:15:17.900Z,22.00
2018-06-02T16:17:45.371Z,22.20
2018-06-02T16:20:12.930Z,22.10
2018-06-02T16:22:40.416Z,22.30
2018-06-02T16:25:07.947Z,21.80
2018-06-02T16:27:35.416Z,21.90
2018-06-02T16:30:02.974Z,21.90
2018-06-02T16:32:30.451Z,21.90
2018-06-02T16:34:59.618Z,21.90
2018-06-02T16:37:27.094Z,21.70
2018-06-02T16:39:54.997Z,21.80
2018-06-02T16:42:23.238Z,21.40
2018-06-02T16:44:51.521Z,21.50
2018-06-02T16:47:19.022Z,21.50
2018-06-02T16:49:46.532Z,21.40
2018-06-02T16:52:14.018Z,21.30
2018-06-02T16:54:41.501Z,21.30
2018-06-02T16:57:09.783Z,21.40
2018-06-02T16:59:37.272Z,21.40
2018-06-02T17:02:04.773Z,21.40
2018-06-02T17:04:32.245Z,21.20
2018-06-02T17:07:02.420Z,21.50
2018-06-02T17:09:30.713Z,21.50
2018-06-02T17:11:58.265Z,21.40
2018-06-02T17:14:25.769Z,21.30
2018-06-02T17:16:54.318Z,21.40
2018-06-02T17:19:21.829Z,21.30
2018-06-02T17:21:49.361Z,21.20
2018-06-02T17:24:16.878Z,21.20
2018-06-02T17:26:44.358Z,21.20
2018-06-02T17:29:11.837Z,21.10
2018-06-02T17:31:39.349Z,21.00
2018-06-02T17:34:06.924Z,20.90
2018-06-02T17:36:35.672Z,20.70
2018-06-02T17:39:03.353Z,20.70
2018-06-02T17:41:31.612Z,20.60
2018-06-02T17:43:59.202Z,20.50
2018-06-02T17:46:26.706Z,20.50
2018-06-02T17:48:54.859Z,20.40
2018-06-02T17:51:23.124Z,20.40
2018-06-02T17:53:51.133Z,20.40
2018-06-02T17:56:19.018Z,20.40
2018-06-02T17:58:47.632Z,20.30
2018-06-02T18:01:15.236Z,20.30
2018-06-02T18:03:43.636Z,20.30
2018-06-02T18:06:11.805Z,20.30
2018-06-02T18:08:40.976Z,20.20
2018-06-02T18:11:08.553Z,20.10
2018-06-02T18:13:38.536Z,20.20
2018-06-02T18:16:06.302Z,20.10
2018-06-02T18:18:34.434Z,20.00
2018-06-02T18:21:05.454Z,19.80
2018-06-02T18:23:33.053Z,19.70
2018-06-02T18:26:01.302Z,19.50
2018-06-02T18:28:28.975Z,19.50
2018-06-02T18:30:57.830Z,19.40
2018-06-02T18:33:25.344Z,19.40
2018-06-02T18:35:54.498Z,19.40
2018-06-02T18:38:22.012Z,19.40
2018-06-02T18:40:49.513Z,19.40
2018-06-02T18:43:17.001Z,19.40
2018-06-02T18:45:44.477Z,19.30
2018-06-02T18:48:11.997Z,19.30
2018-06-02T18:50:39.486Z,19.20
2018-06-02T18:53:07.776Z,19.00
2018-06-02T18:55:36.052Z,18.90
2018-06-02T18:58:04.291Z,18.80
2018-06-02T19:00:32.380Z,18.80
2018-06-02T19:02:59.854Z,18.70
2018-06-02T19:05:28.105Z,18.50
2018-06-02T19:07:55.569Z,18.50
2018-06-02T19:10:23.092Z,18.40
2018-06-02T19:12:50.594Z,18.40
2018-06-02T19:15:18.175Z,18.20
2018-06-02T19:17:45.605Z,18.20
2018-06-02T19:20:13.159Z,18.00
2018-06-02T19:22:40.684Z,17.90
2018-06-02T19:25:08.928Z,17.70
2018-06-02T19:27:37.197Z,17.60
2018-06-02T19:30:04.671Z,17.60
2018-06-02T19:32:32.212Z,17.60
2018-06-02T19:35:00.481Z,17.30
2018-06-02T19:37:29.042Z,17.30
2018-06-02T19:39:56.606Z,17.20
2018-06-02T19:42:24.172Z,17.20
2018-06-02T19:44:51.698Z,17.10
2018-06-02T19:47:19.184Z,17.00
2018-06-02T19:49:46.663Z,16.90
2018-06-02T19:52:14.154Z,16.90
2018-06-02T19:54:42.420Z,16.70
2018-06-02T19:57:09.984Z,16.70
2018-06-02T19:59:38.361Z,16.60
2018-06-02T20:02:05.877Z,16.60
2018-06-02T20:04:33.347Z,16.50
2018-06-02T20:07:00.893Z,16.40
2018-06-02T20:09:28.433Z,16.40
2018-06-02T20:11:55.944Z,16.30
2018-06-02T20:14:25.844Z,16.30
2018-06-02T20:16:53.338Z,16.20
2018-06-02T20:19:20.947Z,16.20
2018-06-02T20:34:50.599Z,16.20
2018-06-02T20:37:18.843Z,15.70
2018-06-02T20:39:46.390Z,15.70
2018-06-02T20:42:14.766Z,15.60
2018-06-02T20:44:42.260Z,15.60
2018-06-02T20:47:10.530Z,15.50
2018-06-02T20:49:38.009Z,15.50
2018-06-02T20:52:06.268Z,15.60
2018-06-02T20:54:33.737Z,15.60
2018-06-02T20:57:02.085Z,15.60
2018-06-02T20:59:33.162Z,15.60
2018-06-02T21:02:01.491Z,15.50
2018-06-02T21:04:28.975Z,15.50
2018-06-02T21:06:56.457Z,15.50
2018-06-02T21:09:24.048Z,15.50
2018-06-02T21:11:51.609Z,15.50
2018-06-02T21:14:19.093Z,15.40
2018-06-02T21:16:46.577Z,15.30
2018-06-02T21:19:14.099Z,15.30
2018-06-02T21:21:41.581Z,15.20
2018-06-02T21:24:09.140Z,15.20
2018-06-02T21:26:36.655Z,15.10
2018-06-02T21:29:04.924Z,15.00
2018-06-02T21:31:32.519Z,15.00
2018-06-02T21:34:00.055Z,15.10
2018-06-02T21:36:28.319Z,15.00
2018-06-02T21:38:56.586Z,15.00
2018-06-02T21:41:24.082Z,15.00
2018-06-02T21:43:51.561Z,14.90
2018-06-02T21:46:23.089Z,14.80
2018-06-02T21:48:50.569Z,14.90
2018-06-02T21:51:18.376Z,14.90
2018-06-02T21:53:45.589Z,14.90
2018-06-02T21:56:13.186Z,14.90
2018-06-02T21:58:40.665Z,14.90
2018-06-02T22:01:08.996Z,14.90
2018-06-02T22:03:37.056Z,14.90
2018-06-02T22:06:05.554Z,14.90
2018-06-02T22:08:33.131Z,14.90
2018-06-02T22:11:04.034Z,15.00
2018-06-02T22:13:31.731Z,15.10
2018-06-02T22:15:59.266Z,15.20
2018-06-02T22:18:26.783Z,15.30
2018-06-02T22:20:54.390Z,15.40
2018-06-02T22:23:21.891Z,15.50
2018-06-02T22:25:50.064Z,15.50
2018-06-02T22:28:18.364Z,15.60
2018-06-02T22:30:46.307Z,15.60
2018-06-02T22:33:14.008Z,15.70
2018-06-02T22:35:41.567Z,15.70
2018-06-02T22:38:09.090Z,15.80
2018-06-02T22:40:36.605Z,15.80
2018-06-02T22:43:04.110Z,15.80
2018-06-02T22:45:31.600Z,15.80
2018-06-02T22:47:59.932Z,15.80
2018-06-02T22:50:27.440Z,15.80
2018-06-02T22:52:55.720Z,15.90
2018-06-02T22:55:23.202Z,15.90
2018-06-02T22:57:50.797Z,15.90
2018-06-02T23:00:20.323Z,15.80
2018-06-02T23:02:47.937Z,15.80
2018-06-02T23:05:15.416Z,15.70
2018-06-02T23:07:43.308Z,15.60
2018-06-02T23:10:10.892Z,15.60
2018-06-02T23:12:42.283Z,15.50
2018-06-02T23:15:09.854Z,15.40
2018-06-02T23:17:37.561Z,15.30
2018-06-02T23:20:09.356Z,15.20
2018-06-02T23:22:38.699Z,15.20
2018-06-02T23:25:07.988Z,15.20
2018-06-02T23:27:35.471Z,15.20
2018-06-02T23:30:03.200Z,15.20
2018-06-02T23:32:30.690Z,15.20
2018-06-02T23:34:58.171Z,15.00
2018-06-02T23:37:26.422Z,14.90
2018-06-02T23:39:53.909Z,14.90
2018-06-02T23:42:22.183Z,14.90
2018-06-02T23:44:50.412Z,14.80
2018-06-02T23:47:18.799Z,14.80
2018-06-02T23:49:46.345Z,14.80
2018-06-02T23:52:13.825Z,14.80
2018-06-02T23:54:41.391Z,14.70
2018-06-02T23:57:08.869Z,14.70
